sensor_id;sensor_type;location;lat;lon;timestamp;P1;durP1;ratioP1;P2;durP2;ratioP2
9467;SDS011;4772;52.382;9.752;2022-10-19T00:00:23;9.87;;;2.20;;
9467;SDS011;4772;52.382;9.752;2022-10-19T00:02:49;8.37;;;2.17;;
9467;SDS011;4772;52.382;9.752;2022-10-19T00:05:15;7.80;;;2.60;;
9467;SDS011;4772;52.382;9.752;2022-10-19T00:07:41;6.63;;;1.90;;
9467;SDS011;4772;52.382;9.752;2022-10-19T00:10:07;5.77;;;2.00;;
9467;SDS011;4772;52.382;9.752;2022-10-19T00:12:33;9.93;;;2.43;;
9467;SDS011;4772;52.382;9.752;2022-10-19T00:14:59;9.03;;;2.57;;
9467;SDS011;4772;52.382;9.752;2022-10-19T00:17:25;8.50;;;2.47;;
9467;SDS011;4772;52.382;9.752;2022-10-19T00:19:51;10.03;;;2.97;;
9467;SDS011;4772;52.382;9.752;2022-10-19T00:22:17;9.80;;;2.40;;
9467;SDS011;4772;52.382;9.752;2022-10-19T00:24:43;8.03;;;2.40;;
9467;SDS011;4772;52.382;9.752;2022-10-19T00:27:10;12.33;;;2.83;;
9467;SDS011;4772;52.382;9.752;2022-10-19T00:29:36;6.80;;;2.80;;
9467;SDS011;4772;52.382;9.752;2022-10-19T00:32:02;7.07;;;2.40;;
9467;SDS011;4772;52.382;9.752;2022-10-19T00:34:28;6.90;;;2.03;;
9467;SDS011;4772;52.382;9.752;2022-10-19T00:36:54;9.20;;;2.30;;
9467;SDS011;4772;52.382;9.752;2022-10-19T00:39:20;9.10;;;3.07;;
9467;SDS011;4772;52.382;9.752;2022-10-19T00:41:46;8.50;;;2.60;;
9467;SDS011;4772;52.382;9.752;2022-10-19T00:46:40;7.73;;;2.20;;
9467;SDS011;4772;52.382;9.752;2022-10-19T00:49:16;6.13;;;2.40;;
9467;SDS011;4772;52.382;9.752;2022-10-19T00:51:45;7.27;;;2.10;;
9467;SDS011;4772;52.382;9.752;2022-10-19T00:54:12;6.27;;;2.40;;
9467;SDS011;4772;52.382;9.752;2022-10-19T00:56:39;9.17;;;3.03;;
9467;SDS011;4772;52.382;9.752;2022-10-19T00:59:06;6.57;;;2.47;;
9467;SDS011;4772;52.382;9.752;2022-10-19T01:01:33;7.63;;;2.50;;
9467;SDS011;4772;52.382;9.752;2022-10-19T01:03:59;9.17;;;2.53;;
9467;SDS011;4772;52.382;9.752;2022-10-19T01:06:26;7.77;;;2.63;;
9467;SDS011;4772;52.382;9.752;2022-10-19T01:08:52;6.47;;;2.20;;
9467;SDS011;4772;52.382;9.752;2022-10-19T01:19:02;7.47;;;2.30;;
9467;SDS011;4772;52.382;9.752;2022-10-19T01:21:36;7.60;;;2.60;;
9467;SDS011;4772;52.382;9.752;2022-10-19T01:31:59;11.20;;;2.70;;
9467;SDS011;4772;52.382;9.752;2022-10-19T01:37:03;8.43;;;2.40;;
9467;SDS011;4772;52.382;9.752;2022-10-19T01:42:52;7.40;;;2.30;;
9467;SDS011;4772;52.382;9.752;2022-10-19T01:44:53;5.30;;;2.17;;
9467;SDS011;4772;52.382;9.752;2022-10-19T01:49:56;6.97;;;2.40;;
9467;SDS011;4772;52.382;9.752;2022-10-19T01:52:24;10.87;;;2.77;;
9467;SDS011;4772;52.382;9.752;2022-10-19T01:54:51;8.13;;;2.33;;
9467;SDS011;4772;52.382;9.752;2022-10-19T01:57:29;8.33;;;2.27;;
9467;SDS011;4772;52.382;9.752;2022-10-19T01:59:57;6.57;;;2.30;;
9467;SDS011;4772;52.382;9.752;2022-10-19T02:02:29;8.33;;;2.73;;
9467;SDS011;4772;52.382;9.752;2022-10-19T02:04:55;8.70;;;2.83;;
9467;SDS011;4772;52.382;9.752;2022-10-19T02:07:21;9.33;;;3.00;;
9467;SDS011;4772;52.382;9.752;2022-10-19T02:09:49;8.50;;;2.80;;
9467;SDS011;4772;52.382;9.752;2022-10-19T02:12:15;12.37;;;3.13;;
9467;SDS011;4772;52.382;9.752;2022-10-19T02:14:43;11.90;;;3.10;;
9467;SDS011;4772;52.382;9.752;2022-10-19T02:17:15;9.33;;;3.77;;
9467;SDS011;4772;52.382;9.752;2022-10-19T02:19:43;7.60;;;3.27;;
9467;SDS011;4772;52.382;9.752;2022-10-19T02:22:10;7.70;;;3.00;;
9467;SDS011;4772;52.382;9.752;2022-10-19T02:24:38;6.30;;;3.00;;
9467;SDS011;4772;52.382;9.752;2022-10-19T02:27:05;6.07;;;2.87;;
9467;SDS011;4772;52.382;9.752;2022-10-19T02:29:32;11.23;;;3.23;;
9467;SDS011;4772;52.382;9.752;2022-10-19T02:31:59;9.63;;;2.90;;
9467;SDS011;4772;52.382;9.752;2022-10-19T02:34:25;8.97;;;3.30;;
9467;SDS011;4772;52.382;9.752;2022-10-19T02:36:52;10.53;;;3.00;;
9467;SDS011;4772;52.382;9.752;2022-10-19T02:39:18;11.57;;;2.90;;
9467;SDS011;4772;52.382;9.752;2022-10-19T02:41:47;7.60;;;2.83;;
9467;SDS011;4772;52.382;9.752;2022-10-19T02:44:18;9.83;;;3.20;;
9467;SDS011;4772;52.382;9.752;2022-10-19T02:46:45;7.60;;;2.97;;
9467;SDS011;4772;52.382;9.752;2022-10-19T02:49:12;8.03;;;2.73;;
9467;SDS011;4772;52.382;9.752;2022-10-19T02:51:40;10.27;;;3.40;;
9467;SDS011;4772;52.382;9.752;2022-10-19T02:54:19;4.97;;;2.90;;
9467;SDS011;4772;52.382;9.752;2022-10-19T02:56:45;7.70;;;3.13;;
9467;SDS011;4772;52.382;9.752;2022-10-19T02:59:11;5.47;;;3.07;;
9467;SDS011;4772;52.382;9.752;2022-10-19T03:01:37;8.37;;;2.80;;
9467;SDS011;4772;52.382;9.752;2022-10-19T03:04:03;9.70;;;3.17;;
9467;SDS011;4772;52.382;9.752;2022-10-19T03:06:29;11.03;;;2.80;;
9467;SDS011;4772;52.382;9.752;2022-10-19T03:08:55;8.23;;;3.07;;
9467;SDS011;4772;52.382;9.752;2022-10-19T03:11:21;9.30;;;3.27;;
9467;SDS011;4772;52.382;9.752;2022-10-19T03:13:46;6.17;;;3.23;;
9467;SDS011;4772;52.382;9.752;2022-10-19T03:16:12;8.20;;;2.97;;
9467;SDS011;4772;52.382;9.752;2022-10-19T03:18:39;10.73;;;2.80;;
9467;SDS011;4772;52.382;9.752;2022-10-19T03:21:06;8.87;;;2.90;;
9467;SDS011;4772;52.382;9.752;2022-10-19T03:23:33;7.13;;;2.73;;
9467;SDS011;4772;52.382;9.752;2022-10-19T03:25:59;8.77;;;2.70;;
9467;SDS011;4772;52.382;9.752;2022-10-19T03:28:25;8.63;;;2.90;;
9467;SDS011;4772;52.382;9.752;2022-10-19T03:30:51;10.70;;;2.87;;
9467;SDS011;4772;52.382;9.752;2022-10-19T03:33:17;8.47;;;2.60;;
9467;SDS011;4772;52.382;9.752;2022-10-19T03:35:43;11.43;;;3.10;;
9467;SDS011;4772;52.382;9.752;2022-10-19T03:38:09;8.60;;;2.47;;
9467;SDS011;4772;52.382;9.752;2022-10-19T03:40:35;7.43;;;2.70;;
9467;SDS011;4772;52.382;9.752;2022-10-19T03:43:01;9.80;;;2.67;;
9467;SDS011;4772;52.382;9.752;2022-10-19T03:45:27;8.63;;;2.90;;
9467;SDS011;4772;52.382;9.752;2022-10-19T03:47:53;6.17;;;2.70;;
9467;SDS011;4772;52.382;9.752;2022-10-19T03:50:19;7.50;;;2.90;;
9467;SDS011;4772;52.382;9.752;2022-10-19T03:52:45;9.33;;;2.73;;
9467;SDS011;4772;52.382;9.752;2022-10-19T03:55:13;4.73;;;2.40;;
9467;SDS011;4772;52.382;9.752;2022-10-19T03:57:39;9.37;;;3.00;;
9467;SDS011;4772;52.382;9.752;2022-10-19T04:00:06;5.77;;;2.70;;
9467;SDS011;4772;52.382;9.752;2022-10-19T04:02:32;11.70;;;3.27;;
9467;SDS011;4772;52.382;9.752;2022-10-19T04:04:58;8.23;;;3.23;;
9467;SDS011;4772;52.382;9.752;2022-10-19T04:07:24;7.93;;;3.03;;
9467;SDS011;4772;52.382;9.752;2022-10-19T04:09:50;9.23;;;3.33;;
9467;SDS011;4772;52.382;9.752;2022-10-19T04:12:16;7.80;;;2.97;;
9467;SDS011;4772;52.382;9.752;2022-10-19T04:14:42;9.13;;;2.87;;
9467;SDS011;4772;52.382;9.752;2022-10-19T04:17:08;6.30;;;2.70;;
9467;SDS011;4772;52.382;9.752;2022-10-19T04:19:35;6.73;;;2.77;;
9467;SDS011;4772;52.382;9.752;2022-10-19T04:22:01;10.70;;;2.70;;
9467;SDS011;4772;52.382;9.752;2022-10-19T04:24:27;10.97;;;3.13;;
9467;SDS011;4772;52.382;9.752;2022-10-19T04:26:53;11.27;;;3.30;;
9467;SDS011;4772;52.382;9.752;2022-10-19T04:29:21;8.63;;;3.10;;
9467;SDS011;4772;52.382;9.752;2022-10-19T04:31:48;7.77;;;2.77;;
9467;SDS011;4772;52.382;9.752;2022-10-19T04:34:15;7.43;;;2.97;;
9467;SDS011;4772;52.382;9.752;2022-10-19T04:36:41;8.40;;;3.43;;
9467;SDS011;4772;52.382;9.752;2022-10-19T04:39:07;9.03;;;3.17;;
9467;SDS011;4772;52.382;9.752;2022-10-19T04:41:33;6.60;;;3.43;;
9467;SDS011;4772;52.382;9.752;2022-10-19T04:44:00;9.30;;;3.50;;
9467;SDS011;4772;52.382;9.752;2022-10-19T04:46:26;10.03;;;3.83;;
9467;SDS011;4772;52.382;9.752;2022-10-19T04:48:53;7.83;;;4.30;;
9467;SDS011;4772;52.382;9.752;2022-10-19T04:51:20;10.93;;;4.17;;
9467;SDS011;4772;52.382;9.752;2022-10-19T04:53:47;8.53;;;3.37;;
9467;SDS011;4772;52.382;9.752;2022-10-19T04:56:14;7.27;;;3.10;;
9467;SDS011;4772;52.382;9.752;2022-10-19T04:58:40;7.77;;;2.90;;
9467;SDS011;4772;52.382;9.752;2022-10-19T05:01:17;4.47;;;3.00;;
9467;SDS011;4772;52.382;9.752;2022-10-19T05:03:43;9.37;;;3.23;;
9467;SDS011;4772;52.382;9.752;2022-10-19T05:06:10;8.17;;;3.73;;
9467;SDS011;4772;52.382;9.752;2022-10-19T05:08:36;9.17;;;3.30;;
9467;SDS011;4772;52.382;9.752;2022-10-19T05:11:06;6.13;;;2.90;;
9467;SDS011;4772;52.382;9.752;2022-10-19T05:13:33;7.73;;;3.00;;
9467;SDS011;4772;52.382;9.752;2022-10-19T05:16:00;9.50;;;3.00;;
9467;SDS011;4772;52.382;9.752;2022-10-19T05:18:26;8.30;;;3.13;;
9467;SDS011;4772;52.382;9.752;2022-10-19T05:21:06;9.23;;;2.80;;
9467;SDS011;4772;52.382;9.752;2022-10-19T05:23:32;7.17;;;3.00;;
9467;SDS011;4772;52.382;9.752;2022-10-19T05:26:17;8.53;;;3.07;;
9467;SDS011;4772;52.382;9.752;2022-10-19T05:28:50;8.30;;;2.97;;
9467;SDS011;4772;52.382;9.752;2022-10-19T05:31:20;10.40;;;2.97;;
9467;SDS011;4772;52.382;9.752;2022-10-19T05:33:47;11.80;;;3.40;;
9467;SDS011;4772;52.382;9.752;2022-10-19T05:36:17;9.30;;;3.30;;
9467;SDS011;4772;52.382;9.752;2022-10-19T05:38:44;10.17;;;3.30;;
9467;SDS011;4772;52.382;9.752;2022-10-19T05:41:11;9.47;;;2.67;;
9467;SDS011;4772;52.382;9.752;2022-10-19T05:43:37;9.47;;;2.50;;
9467;SDS011;4772;52.382;9.752;2022-10-19T05:46:05;9.40;;;2.70;;
9467;SDS011;4772;52.382;9.752;2022-10-19T05:48:31;8.70;;;2.10;;
9467;SDS011;4772;52.382;9.752;2022-10-19T05:50:58;6.47;;;2.17;;
9467;SDS011;4772;52.382;9.752;2022-10-19T05:53:24;8.73;;;2.80;;
9467;SDS011;4772;52.382;9.752;2022-10-19T05:55:50;9.17;;;2.57;;
9467;SDS011;4772;52.382;9.752;2022-10-19T05:58:16;7.67;;;2.50;;
9467;SDS011;4772;52.382;9.752;2022-10-19T06:00:42;7.80;;;2.40;;
9467;SDS011;4772;52.382;9.752;2022-10-19T06:03:08;6.50;;;2.57;;
9467;SDS011;4772;52.382;9.752;2022-10-19T06:05:35;8.80;;;2.40;;
9467;SDS011;4772;52.382;9.752;2022-10-19T06:08:01;7.67;;;2.73;;
9467;SDS011;4772;52.382;9.752;2022-10-19T06:10:27;7.73;;;2.63;;
9467;SDS011;4772;52.382;9.752;2022-10-19T06:12:56;9.90;;;2.47;;
9467;SDS011;4772;52.382;9.752;2022-10-19T06:15:22;6.57;;;2.53;;
9467;SDS011;4772;52.382;9.752;2022-10-19T06:17:48;9.73;;;2.60;;
9467;SDS011;4772;52.382;9.752;2022-10-19T06:20:14;6.17;;;2.40;;
9467;SDS011;4772;52.382;9.752;2022-10-19T06:22:40;11.03;;;2.50;;
9467;SDS011;4772;52.382;9.752;2022-10-19T06:25:06;8.27;;;2.43;;
9467;SDS011;4772;52.382;9.752;2022-10-19T06:27:32;7.67;;;2.30;;
9467;SDS011;4772;52.382;9.752;2022-10-19T06:29:58;11.63;;;2.40;;
9467;SDS011;4772;52.382;9.752;2022-10-19T06:32:24;20.97;;;2.23;;
9467;SDS011;4772;52.382;9.752;2022-10-19T06:34:52;10.10;;;2.13;;
9467;SDS011;4772;52.382;9.752;2022-10-19T06:37:18;5.77;;;1.93;;
9467;SDS011;4772;52.382;9.752;2022-10-19T06:39:44;7.73;;;1.93;;
9467;SDS011;4772;52.382;9.752;2022-10-19T06:42:10;10.03;;;2.40;;
9467;SDS011;4772;52.382;9.752;2022-10-19T06:44:36;10.33;;;2.13;;
9467;SDS011;4772;52.382;9.752;2022-10-19T06:47:02;12.07;;;2.40;;
9467;SDS011;4772;52.382;9.752;2022-10-19T06:49:28;9.93;;;1.90;;
9467;SDS011;4772;52.382;9.752;2022-10-19T06:51:54;6.47;;;2.20;;
9467;SDS011;4772;52.382;9.752;2022-10-19T06:54:20;7.87;;;2.33;;
9467;SDS011;4772;52.382;9.752;2022-10-19T06:56:49;9.37;;;2.33;;
9467;SDS011;4772;52.382;9.752;2022-10-19T06:59:15;10.53;;;2.20;;
9467;SDS011;4772;52.382;9.752;2022-10-19T07:01:41;10.27;;;2.13;;
9467;SDS011;4772;52.382;9.752;2022-10-19T07:04:07;5.57;;;1.57;;
9467;SDS011;4772;52.382;9.752;2022-10-19T07:06:33;12.83;;;2.33;;
9467;SDS011;4772;52.382;9.752;2022-10-19T07:08:59;7.60;;;2.37;;
9467;SDS011;4772;52.382;9.752;2022-10-19T07:11:34;5.37;;;1.90;;
9467;SDS011;4772;52.382;9.752;2022-10-19T07:14:00;8.57;;;1.90;;
9467;SDS011;4772;52.382;9.752;2022-10-19T07:16:26;11.37;;;2.20;;
9467;SDS011;4772;52.382;9.752;2022-10-19T07:18:52;7.17;;;2.00;;
9467;SDS011;4772;52.382;9.752;2022-10-19T07:21:18;7.13;;;2.30;;
9467;SDS011;4772;52.382;9.752;2022-10-19T07:23:44;9.97;;;2.47;;
9467;SDS011;4772;52.382;9.752;2022-10-19T07:26:15;7.13;;;2.33;;
9467;SDS011;4772;52.382;9.752;2022-10-19T07:28:42;9.90;;;1.93;;
9467;SDS011;4772;52.382;9.752;2022-10-19T07:31:16;8.50;;;1.87;;
9467;SDS011;4772;52.382;9.752;2022-10-19T07:33:44;5.20;;;1.40;;
9467;SDS011;4772;52.382;9.752;2022-10-19T07:36:10;7.20;;;1.70;;
9467;SDS011;4772;52.382;9.752;2022-10-19T07:38:39;6.77;;;2.00;;
9467;SDS011;4772;52.382;9.752;2022-10-19T07:41:07;6.50;;;1.93;;
9467;SDS011;4772;52.382;9.752;2022-10-19T07:43:33;8.07;;;2.00;;
9467;SDS011;4772;52.382;9.752;2022-10-19T07:46:00;9.47;;;2.40;;
9467;SDS011;4772;52.382;9.752;2022-10-19T07:48:26;6.77;;;1.97;;
9467;SDS011;4772;52.382;9.752;2022-10-19T07:50:52;5.47;;;2.00;;
9467;SDS011;4772;52.382;9.752;2022-10-19T07:53:18;8.37;;;1.80;;
9467;SDS011;4772;52.382;9.752;2022-10-19T07:55:44;9.70;;;2.07;;
9467;SDS011;4772;52.382;9.752;2022-10-19T07:58:10;8.00;;;1.97;;
9467;SDS011;4772;52.382;9.752;2022-10-19T08:00:36;5.57;;;1.60;;
9467;SDS011;4772;52.382;9.752;2022-10-19T08:03:02;5.03;;;1.80;;
9467;SDS011;4772;52.382;9.752;2022-10-19T08:05:30;5.77;;;1.80;;
9467;SDS011;4772;52.382;9.752;2022-10-19T08:07:56;9.53;;;1.83;;
9467;SDS011;4772;52.382;9.752;2022-10-19T08:10:22;9.87;;;2.20;;
9467;SDS011;4772;52.382;9.752;2022-10-19T08:12:48;7.27;;;1.80;;
9467;SDS011;4772;52.382;9.752;2022-10-19T08:15:14;5.07;;;1.47;;
9467;SDS011;4772;52.382;9.752;2022-10-19T08:17:40;7.43;;;1.67;;
9467;SDS011;4772;52.382;9.752;2022-10-19T08:20:07;5.33;;;1.73;;
9467;SDS011;4772;52.382;9.752;2022-10-19T08:22:33;10.00;;;1.80;;
9467;SDS011;4772;52.382;9.752;2022-10-19T08:24:59;4.83;;;1.80;;
9467;SDS011;4772;52.382;9.752;2022-10-19T08:27:25;7.23;;;1.53;;
9467;SDS011;4772;52.382;9.752;2022-10-19T08:29:51;6.77;;;2.00;;
9467;SDS011;4772;52.382;9.752;2022-10-19T08:32:17;5.90;;;1.77;;
9467;SDS011;4772;52.382;9.752;2022-10-19T08:34:43;5.57;;;1.83;;
9467;SDS011;4772;52.382;9.752;2022-10-19T08:37:09;6.03;;;2.07;;
9467;SDS011;4772;52.382;9.752;2022-10-19T08:45:52;6.07;;;1.70;;
9467;SDS011;4772;52.382;9.752;2022-10-19T08:50:27;4.33;;;1.63;;
9467;SDS011;4772;52.382;9.752;2022-10-19T08:53:01;3.73;;;1.50;;
9467;SDS011;4772;52.382;9.752;2022-10-19T08:55:31;3.17;;;1.33;;
9467;SDS011;4772;52.382;9.752;2022-10-19T09:03:15;4.37;;;1.40;;
9467;SDS011;4772;52.382;9.752;2022-10-19T09:05:48;3.07;;;1.27;;
9467;SDS011;4772;52.382;9.752;2022-10-19T09:08:16;3.77;;;1.47;;
9467;SDS011;4772;52.382;9.752;2022-10-19T09:10:43;5.00;;;1.40;;
9467;SDS011;4772;52.382;9.752;2022-10-19T09:15:58;4.43;;;1.33;;
9467;SDS011;4772;52.382;9.752;2022-10-19T09:18:28;4.83;;;1.40;;
9467;SDS011;4772;52.382;9.752;2022-10-19T09:23:48;3.63;;;1.07;;
9467;SDS011;4772;52.382;9.752;2022-10-19T09:26:20;2.87;;;1.20;;
9467;SDS011;4772;52.382;9.752;2022-10-19T09:29:09;2.63;;;1.30;;
9467;SDS011;4772;52.382;9.752;2022-10-19T09:31:39;5.90;;;1.53;;
9467;SDS011;4772;52.382;9.752;2022-10-19T09:34:14;4.43;;;1.33;;
9467;SDS011;4772;52.382;9.752;2022-10-19T09:36:42;3.90;;;1.23;;
9467;SDS011;4772;52.382;9.752;2022-10-19T09:39:12;5.97;;;1.70;;
9467;SDS011;4772;52.382;9.752;2022-10-19T09:42:16;5.33;;;1.40;;
9467;SDS011;4772;52.382;9.752;2022-10-19T09:44:31;3.57;;;1.30;;
9467;SDS011;4772;52.382;9.752;2022-10-19T09:47:09;2.97;;;1.33;;
9467;SDS011;4772;52.382;9.752;2022-10-19T09:49:41;5.63;;;1.40;;
9467;SDS011;4772;52.382;9.752;2022-10-19T10:00:19;4.70;;;1.27;;
9467;SDS011;4772;52.382;9.752;2022-10-19T10:02:49;3.60;;;1.30;;
9467;SDS011;4772;52.382;9.752;2022-10-19T10:05:37;5.43;;;1.20;;
9467;SDS011;4772;52.382;9.752;2022-10-19T10:08:04;2.10;;;1.30;;
9467;SDS011;4772;52.382;9.752;2022-10-19T10:10:36;4.77;;;1.47;;
9467;SDS011;4772;52.382;9.752;2022-10-19T10:13:03;5.43;;;1.40;;
9467;SDS011;4772;52.382;9.752;2022-10-19T10:15:53;2.30;;;1.20;;
9467;SDS011;4772;52.382;9.752;2022-10-19T10:18:16;3.10;;;1.30;;
9467;SDS011;4772;52.382;9.752;2022-10-19T10:20:54;5.43;;;1.43;;
9467;SDS011;4772;52.382;9.752;2022-10-19T10:23:24;2.87;;;1.07;;
9467;SDS011;4772;52.382;9.752;2022-10-19T10:25:55;2.27;;;1.17;;
9467;SDS011;4772;52.382;9.752;2022-10-19T10:28:23;1.93;;;1.30;;
9467;SDS011;4772;52.382;9.752;2022-10-19T10:31:00;2.40;;;1.50;;
9467;SDS011;4772;52.382;9.752;2022-10-19T10:33:27;3.60;;;1.50;;
9467;SDS011;4772;52.382;9.752;2022-10-19T10:35:54;2.73;;;1.27;;
9467;SDS011;4772;52.382;9.752;2022-10-19T10:38:25;2.87;;;1.37;;
9467;SDS011;4772;52.382;9.752;2022-10-19T10:40:55;3.40;;;1.27;;
9467;SDS011;4772;52.382;9.752;2022-10-19T10:43:26;1.60;;;1.30;;
9467;SDS011;4772;52.382;9.752;2022-10-19T10:45:54;3.57;;;1.50;;
9467;SDS011;4772;52.382;9.752;2022-10-19T10:54:08;3.03;;;1.33;;
9467;SDS011;4772;52.382;9.752;2022-10-19T10:56:40;3.20;;;1.13;;
9467;SDS011;4772;52.382;9.752;2022-10-19T10:59:12;2.67;;;1.30;;
9467;SDS011;4772;52.382;9.752;2022-10-19T11:01:41;4.97;;;1.27;;
9467;SDS011;4772;52.382;9.752;2022-10-19T11:04:09;4.03;;;1.27;;
9467;SDS011;4772;52.382;9.752;2022-10-19T11:06:40;5.30;;;1.57;;
9467;SDS011;4772;52.382;9.752;2022-10-19T11:09:11;1.87;;;1.13;;
9467;SDS011;4772;52.382;9.752;2022-10-19T11:11:49;4.63;;;1.50;;
9467;SDS011;4772;52.382;9.752;2022-10-19T11:14:27;3.87;;;1.20;;
9467;SDS011;4772;52.382;9.752;2022-10-19T11:16:56;4.20;;;1.37;;
9467;SDS011;4772;52.382;9.752;2022-10-19T11:19:36;2.80;;;1.10;;
9467;SDS011;4772;52.382;9.752;2022-10-19T11:22:14;3.13;;;1.30;;
9467;SDS011;4772;52.382;9.752;2022-10-19T11:32:11;4.03;;;1.50;;
9467;SDS011;4772;52.382;9.752;2022-10-19T11:40:00;2.43;;;1.10;;
9467;SDS011;4772;52.382;9.752;2022-10-19T11:47:46;3.97;;;1.50;;
9467;SDS011;4772;52.382;9.752;2022-10-19T12:11:25;3.93;;;1.60;;
9467;SDS011;4772;52.382;9.752;2022-10-19T12:13:58;3.57;;;1.63;;
9467;SDS011;4772;52.382;9.752;2022-10-19T12:16:29;4.77;;;1.53;;
9467;SDS011;4772;52.382;9.752;2022-10-19T12:18:58;2.17;;;1.57;;
9467;SDS011;4772;52.382;9.752;2022-10-19T12:21:26;7.77;;;1.90;;
9467;SDS011;4772;52.382;9.752;2022-10-19T12:23:53;6.17;;;1.77;;
9467;SDS011;4772;52.382;9.752;2022-10-19T12:26:21;5.33;;;1.73;;
9467;SDS011;4772;52.382;9.752;2022-10-19T12:29:00;3.80;;;1.60;;
9467;SDS011;4772;52.382;9.752;2022-10-19T12:31:28;5.93;;;1.60;;
9467;SDS011;4772;52.382;9.752;2022-10-19T12:33:56;5.17;;;1.77;;
9467;SDS011;4772;52.382;9.752;2022-10-19T12:44:08;3.03;;;1.50;;
9467;SDS011;4772;52.382;9.752;2022-10-19T12:49:33;2.53;;;1.27;;
9467;SDS011;4772;52.382;9.752;2022-10-19T12:51:49;4.67;;;1.30;;
9467;SDS011;4772;52.382;9.752;2022-10-19T12:54:15;4.27;;;1.30;;
9467;SDS011;4772;52.382;9.752;2022-10-19T12:56:47;3.77;;;1.50;;
9467;SDS011;4772;52.382;9.752;2022-10-19T12:59:23;4.97;;;1.33;;
9467;SDS011;4772;52.382;9.752;2022-10-19T13:01:50;3.13;;;1.30;;
9467;SDS011;4772;52.382;9.752;2022-10-19T13:04:18;6.80;;;2.00;;
9467;SDS011;4772;52.382;9.752;2022-10-19T13:06:58;4.37;;;1.80;;
9467;SDS011;4772;52.382;9.752;2022-10-19T13:09:32;3.70;;;1.63;;
9467;SDS011;4772;52.382;9.752;2022-10-19T13:14:44;7.30;;;1.60;;
9467;SDS011;4772;52.382;9.752;2022-10-19T13:22:43;4.53;;;1.50;;
9467;SDS011;4772;52.382;9.752;2022-10-19T13:27:39;4.43;;;1.70;;
9467;SDS011;4772;52.382;9.752;2022-10-19T13:30:05;3.37;;;1.30;;
9467;SDS011;4772;52.382;9.752;2022-10-19T13:32:51;5.37;;;1.47;;
9467;SDS011;4772;52.382;9.752;2022-10-19T13:40:38;6.90;;;1.65;;
9467;SDS011;4772;52.382;9.752;2022-10-19T13:43:11;2.70;;;1.17;;
9467;SDS011;4772;52.382;9.752;2022-10-19T13:45:41;6.23;;;1.43;;
9467;SDS011;4772;52.382;9.752;2022-10-19T13:48:17;5.03;;;1.43;;
9467;SDS011;4772;52.382;9.752;2022-10-19T13:50:57;2.93;;;1.40;;
9467;SDS011;4772;52.382;9.752;2022-10-19T13:56:07;3.73;;;1.80;;
9467;SDS011;4772;52.382;9.752;2022-10-19T13:58:56;4.30;;;1.43;;
9467;SDS011;4772;52.382;9.752;2022-10-19T14:06:51;4.33;;;1.60;;
9467;SDS011;4772;52.382;9.752;2022-10-19T14:11:50;3.80;;;1.60;;
9467;SDS011;4772;52.382;9.752;2022-10-19T14:14:19;2.77;;;1.40;;
9467;SDS011;4772;52.382;9.752;2022-10-19T14:19:12;3.87;;;1.70;;
9467;SDS011;4772;52.382;9.752;2022-10-19T14:21:38;3.87;;;1.60;;
9467;SDS011;4772;52.382;9.752;2022-10-19T14:24:18;4.83;;;2.10;;
9467;SDS011;4772;52.382;9.752;2022-10-19T14:26:45;5.73;;;2.17;;
9467;SDS011;4772;52.382;9.752;2022-10-19T14:29:11;6.50;;;1.83;;
9467;SDS011;4772;52.382;9.752;2022-10-19T14:31:37;5.73;;;2.13;;
9467;SDS011;4772;52.382;9.752;2022-10-19T14:34:03;3.30;;;1.80;;
9467;SDS011;4772;52.382;9.752;2022-10-19T14:36:33;9.80;;;1.80;;
9467;SDS011;4772;52.382;9.752;2022-10-19T14:39:01;5.47;;;1.90;;
9467;SDS011;4772;52.382;9.752;2022-10-19T14:43:53;2.30;;;1.23;;
9467;SDS011;4772;52.382;9.752;2022-10-19T14:46:19;10.50;;;2.10;;
9467;SDS011;4772;52.382;9.752;2022-10-19T14:48:46;3.57;;;1.57;;
9467;SDS011;4772;52.382;9.752;2022-10-19T14:51:18;4.00;;;1.87;;
9467;SDS011;4772;52.382;9.752;2022-10-19T14:53:47;5.30;;;2.10;;
9467;SDS011;4772;52.382;9.752;2022-10-19T14:56:16;5.53;;;1.80;;
9467;SDS011;4772;52.382;9.752;2022-10-19T14:58:48;5.70;;;1.90;;
9467;SDS011;4772;52.382;9.752;2022-10-19T15:01:15;7.87;;;2.27;;
9467;SDS011;4772;52.382;9.752;2022-10-19T15:03:42;3.00;;;1.73;;
9467;SDS011;4772;52.382;9.752;2022-10-19T15:06:26;4.80;;;1.93;;
9467;SDS011;4772;52.382;9.752;2022-10-19T15:09:03;7.10;;;2.07;;
9467;SDS011;4772;52.382;9.752;2022-10-19T15:11:32;6.97;;;2.13;;
9467;SDS011;4772;52.382;9.752;2022-10-19T15:14:05;6.03;;;1.80;;
9467;SDS011;4772;52.382;9.752;2022-10-19T15:16:40;4.73;;;1.97;;
9467;SDS011;4772;52.382;9.752;2022-10-19T15:19:25;5.67;;;2.23;;
9467;SDS011;4772;52.382;9.752;2022-10-19T15:24:35;8.93;;;2.20;;
9467;SDS011;4772;52.382;9.752;2022-10-19T15:27:09;6.93;;;2.13;;
9467;SDS011;4772;52.382;9.752;2022-10-19T15:29:36;5.63;;;2.47;;
9467;SDS011;4772;52.382;9.752;2022-10-19T15:32:12;5.60;;;2.10;;
9467;SDS011;4772;52.382;9.752;2022-10-19T15:34:39;5.17;;;2.33;;
9467;SDS011;4772;52.382;9.752;2022-10-19T15:37:12;5.53;;;2.43;;
9467;SDS011;4772;52.382;9.752;2022-10-19T15:39:41;6.43;;;2.60;;
9467;SDS011;4772;52.382;9.752;2022-10-19T15:42:20;7.83;;;2.60;;
9467;SDS011;4772;52.382;9.752;2022-10-19T15:44:46;8.60;;;2.67;;
9467;SDS011;4772;52.382;9.752;2022-10-19T15:52:19;6.87;;;3.03;;
9467;SDS011;4772;52.382;9.752;2022-10-19T15:54:46;10.50;;;2.73;;
9467;SDS011;4772;52.382;9.752;2022-10-19T15:57:32;6.67;;;2.57;;
9467;SDS011;4772;52.382;9.752;2022-10-19T15:59:59;6.50;;;2.63;;
9467;SDS011;4772;52.382;9.752;2022-10-19T16:02:26;10.57;;;2.67;;
9467;SDS011;4772;52.382;9.752;2022-10-19T16:04:52;6.40;;;2.70;;
9467;SDS011;4772;52.382;9.752;2022-10-19T16:07:29;9.83;;;2.93;;
9467;SDS011;4772;52.382;9.752;2022-10-19T16:09:56;7.13;;;2.77;;
9467;SDS011;4772;52.382;9.752;2022-10-19T16:12:22;7.43;;;2.90;;
9467;SDS011;4772;52.382;9.752;2022-10-19T16:14:48;7.07;;;3.03;;
9467;SDS011;4772;52.382;9.752;2022-10-19T16:17:17;9.10;;;3.13;;
9467;SDS011;4772;52.382;9.752;2022-10-19T16:19:43;10.23;;;3.07;;
9467;SDS011;4772;52.382;9.752;2022-10-19T16:22:09;13.90;;;3.03;;
9467;SDS011;4772;52.382;9.752;2022-10-19T16:24:35;9.80;;;3.50;;
9467;SDS011;4772;52.382;9.752;2022-10-19T16:27:01;8.27;;;2.87;;
9467;SDS011;4772;52.382;9.752;2022-10-19T16:29:28;5.70;;;3.00;;
9467;SDS011;4772;52.382;9.752;2022-10-19T16:31:54;5.73;;;2.80;;
9467;SDS011;4772;52.382;9.752;2022-10-19T16:34:20;11.60;;;3.33;;
9467;SDS011;4772;52.382;9.752;2022-10-19T16:36:46;6.33;;;2.90;;
9467;SDS011;4772;52.382;9.752;2022-10-19T16:39:12;15.50;;;6.90;;
9467;SDS011;4772;52.382;9.752;2022-10-19T16:41:38;7.60;;;2.70;;
9467;SDS011;4772;52.382;9.752;2022-10-19T16:44:04;8.83;;;3.13;;
9467;SDS011;4772;52.382;9.752;2022-10-19T16:46:30;6.97;;;3.00;;
9467;SDS011;4772;52.382;9.752;2022-10-19T16:48:56;9.33;;;3.30;;
9467;SDS011;4772;52.382;9.752;2022-10-19T16:53:49;10.63;;;3.10;;
9467;SDS011;4772;52.382;9.752;2022-10-19T16:56:15;5.93;;;3.00;;
9467;SDS011;4772;52.382;9.752;2022-10-19T16:58:41;6.63;;;3.00;;
9467;SDS011;4772;52.382;9.752;2022-10-19T17:01:12;7.57;;;3.20;;
9467;SDS011;4772;52.382;9.752;2022-10-19T17:03:39;9.77;;;3.57;;
9467;SDS011;4772;52.382;9.752;2022-10-19T17:06:06;5.43;;;3.57;;
9467;SDS011;4772;52.382;9.752;2022-10-19T17:08:32;7.53;;;3.20;;
9467;SDS011;4772;52.382;9.752;2022-10-19T17:11:18;7.00;;;3.67;;
9467;SDS011;4772;52.382;9.752;2022-10-19T17:13:45;6.40;;;3.23;;
9467;SDS011;4772;52.382;9.752;2022-10-19T17:16:12;5.50;;;3.40;;
9467;SDS011;4772;52.382;9.752;2022-10-19T17:18:39;7.43;;;3.40;;
9467;SDS011;4772;52.382;9.752;2022-10-19T17:21:08;9.33;;;3.50;;
9467;SDS011;4772;52.382;9.752;2022-10-19T17:23:34;10.53;;;3.90;;
9467;SDS011;4772;52.382;9.752;2022-10-19T17:26:00;8.13;;;3.33;;
9467;SDS011;4772;52.382;9.752;2022-10-19T17:28:26;6.43;;;3.00;;
9467;SDS011;4772;52.382;9.752;2022-10-19T17:30:52;4.30;;;3.10;;
9467;SDS011;4772;52.382;9.752;2022-10-19T17:33:19;8.00;;;3.20;;
9467;SDS011;4772;52.382;9.752;2022-10-19T17:35:45;8.27;;;3.40;;
9467;SDS011;4772;52.382;9.752;2022-10-19T17:38:11;8.37;;;3.27;;
9467;SDS011;4772;52.382;9.752;2022-10-19T17:40:37;10.30;;;3.33;;
9467;SDS011;4772;52.382;9.752;2022-10-19T17:43:03;6.43;;;2.97;;
9467;SDS011;4772;52.382;9.752;2022-10-19T17:45:29;6.27;;;3.13;;
9467;SDS011;4772;52.382;9.752;2022-10-19T17:47:55;7.60;;;3.00;;
9467;SDS011;4772;52.382;9.752;2022-10-19T17:50:21;7.53;;;3.00;;
9467;SDS011;4772;52.382;9.752;2022-10-19T17:52:47;7.30;;;3.37;;